Time;durP1;ratioP1;P1;durP2;ratioP2;P2;SDS_P1;SDS_P2;PMS_P1;PMS_P2;Temp;Humidity;BMP_temperature;BMP_pressure;BME280_temperature;BME280_humidity;BME280_pressure;Samples;Min_cycle;Max_cycle;Signal;HPM_P1;HPM_P2
2022/10/31 05:00:12;;;;;;;10.03;4.20;;;12.80;99.90;;;;;;5954900;23;21206;31
2022/10/31 05:03:04;;;;;;;12.13;4.15;;;12.70;99.90;;;;;;4972763;28;20055;-71
2022/10/31 05:05:31;;;;;;;6.47;3.58;;;12.70;99.90;;;;;;4969676;28;20039;-72
2022/10/31 05:07:56;;;;;;;10.13;4.22;;;12.70;99.90;;;;;;4954646;28;20495;-72
2022/10/31 05:10:25;;;;;;;15.63;5.80;;;12.70;99.90;;;;;;4971229;28;20058;-72
2022/10/31 05:12:59;;;;;;;8.98;4.10;;;12.80;99.90;;;;;;4988880;28;20395;-71
2022/10/31 05:15:26;;;;;;;6.68;4.20;;;12.90;99.90;;;;;;4974620;28;20432;-73
2022/10/31 05:17:53;;;;;;;10.82;4.13;;;12.90;99.90;;;;;;4994141;28;20424;-73
2022/10/31 05:20:21;;;;;;;11.10;4.53;;;12.80;99.90;;;;;;4986016;28;20435;-73
2022/10/31 05:22:49;;;;;;;10.10;4.90;;;12.80;99.90;;;;;;4981968;28;20023;-74
2022/10/31 05:25:16;;;;;;;11.43;5.30;;;12.70;99.90;;;;;;4976048;28;20105;-74
2022/10/31 05:27:44;;;;;;;11.13;4.63;;;12.80;99.90;;;;;;4994788;28;20090;-74
2022/10/31 05:30:12;;;;;;;11.90;5.07;;;12.70;99.90;;;;;;4991371;28;20034;-73
2022/10/31 05:32:45;;;;;;;7.57;3.72;;;12.60;99.90;;;;;;4988931;28;20031;-74
2022/10/31 05:35:13;;;;;;;10.88;4.20;;;12.60;99.90;;;;;;4993415;28;20023;-74
2022/10/31 05:37:39;;;;;;;10.15;4.15;;;12.60;99.90;;;;;;5010412;28;20080;-74
2022/10/31 05:40:08;;;;;;;10.77;4.20;;;12.50;99.90;;;;;;4996220;28;20430;-74
2022/10/31 05:42:33;;;;;;;9.25;4.38;;;12.40;99.90;;;;;;4995937;28;20027;-74
2022/10/31 05:44:59;;;;;;;9.57;3.70;;;12.50;99.90;;;;;;4997751;28;20033;-74
2022/10/31 05:47:25;;;;;;;12.20;4.35;;;12.40;99.90;;;;;;5004276;28;20031;-74
2022/10/31 05:49:51;;;;;;;11.60;4.38;;;12.40;99.90;;;;;;5004125;28;20030;-73
2022/10/31 05:52:16;;;;;;;11.00;4.07;;;12.40;99.90;;;;;;4996605;28;20026;-73
2022/10/31 05:54:42;;;;;;;11.07;4.13;;;12.40;99.90;;;;;;4983653;28;20035;-73
2022/10/31 05:57:08;;;;;;;13.27;5.00;;;12.30;99.90;;;;;;5004176;28;20029;-73
2022/10/31 05:59:33;;;;;;;13.80;4.03;;;12.30;99.90;;;;;;4984704;28;20468;-73
2022/10/31 06:01:59;;;;;;;11.10;4.33;;;12.30;99.90;;;;;;4977752;28;20471;-73
2022/10/31 06:04:24;;;;;;;10.00;4.00;;;12.30;99.90;;;;;;4976171;28;20026;-74
2022/10/31 06:06:50;;;;;;;13.17;4.57;;;12.20;99.90;;;;;;4986597;28;20034;-73
2022/10/31 06:09:15;;;;;;;8.17;4.00;;;12.10;99.90;;;;;;4995309;28;20084;-73
2022/10/31 06:11:41;;;;;;;7.97;3.67;;;12.00;99.90;;;;;;4996691;28;20042;-73
2022/10/31 06:14:06;;;;;;;12.10;3.60;;;12.00;99.90;;;;;;4995427;28;20033;-73
2022/10/31 06:16:32;;;;;;;7.40;4.00;;;11.90;99.90;;;;;;4995394;28;20026;-68
2022/10/31 06:18:59;;;;;;;7.25;3.75;;;11.80;99.90;;;;;;4996514;28;20373;-68
2022/10/31 06:21:25;;;;;;;11.23;3.33;;;11.80;99.90;;;;;;4995606;28;20109;-68
2022/10/31 06:23:51;;;;;;;11.13;3.50;;;11.70;99.90;;;;;;4987348;28;20103;-67
2022/10/31 06:26:16;;;;;;;8.95;3.97;;;11.90;99.90;;;;;;4977427;28;20295;-71
2022/10/31 06:28:42;;;;;;;6.30;4.10;;;11.90;99.90;;;;;;4987202;28;20038;-72
2022/10/31 06:31:07;;;;;;;11.20;3.57;;;12.10;99.90;;;;;;4993656;28;20030;-68
2022/10/31 06:33:33;;;;;;;17.27;8.90;;;12.10;99.90;;;;;;4994345;28;20030;-69
2022/10/31 06:35:59;;;;;;;12.23;4.55;;;12.20;99.90;;;;;;4995455;28;20054;-69
2022/10/31 06:38:26;;;;;;;8.73;3.70;;;12.30;99.90;;;;;;5010710;28;20026;-68
2022/10/31 06:40:52;;;;;;;9.15;4.70;;;12.20;99.90;;;;;;4994251;28;20040;-69
2022/10/31 06:43:18;;;;;;;9.75;4.05;;;12.20;99.90;;;;;;4995225;28;20030;-70
2022/10/31 06:45:43;;;;;;;9.93;4.70;;;12.30;99.90;;;;;;4995518;28;20030;-70
2022/10/31 06:48:09;;;;;;;8.93;4.90;;;12.20;99.90;;;;;;4995598;28;20034;-69
2022/10/31 06:50:34;;;;;;;10.23;4.13;;;12.30;99.90;;;;;;4993876;28;20030;-70
2022/10/31 06:53:00;;;;;;;11.37;4.37;;;12.40;99.90;;;;;;4994680;28;20030;-68
2022/10/31 06:55:26;;;;;;;11.93;4.43;;;12.40;99.90;;;;;;4995066;28;20027;-69
2022/10/31 06:57:56;;;;;;;;;;;12.40;99.90;;;;;;4995503;28;20057;-69
2022/10/31 07:00:22;;;;;;;5.70;3.50;;;12.40;99.90;;;;;;4995222;28;19918;-72
2022/10/31 07:03:00;;;;;;;8.93;4.30;;;12.20;99.90;;;;;;4994130;28;20030;-70
2022/10/31 07:05:27;;;;;;;12.10;4.85;;;12.30;99.90;;;;;;4994948;28;20026;-70
2022/10/31 07:08:02;;;;;;;8.65;4.32;;;12.40;99.90;;;;;;4994781;28;20030;-69
2022/10/31 07:10:30;;;;;;;10.10;4.47;;;12.40;99.90;;;;;;4994973;28;20023;-69
2022/10/31 07:12:57;;;;;;;8.82;3.85;;;12.40;99.90;;;;;;4994851;28;20452;-70
2022/10/31 07:15:24;;;;;;;8.15;3.63;;;12.50;99.90;;;;;;4994984;28;20030;-70
2022/10/31 07:17:50;;;;;;;11.73;3.70;;;12.50;99.90;;;;;;5009886;28;20038;-70
2022/10/31 07:20:16;;;;;;;9.57;4.17;;;12.60;99.90;;;;;;4994704;28;20026;-70
2022/10/31 07:22:42;;;;;;;10.77;3.97;;;12.60;99.90;;;;;;4991358;28;20611;-69
2022/10/31 07:25:08;;;;;;;9.95;4.18;;;12.60;99.90;;;;;;4975041;28;20050;-69
2022/10/31 07:27:38;;;;;;;8.00;3.85;;;12.70;99.90;;;;;;4975093;28;20031;-69
2022/10/31 07:30:05;;;;;;;7.85;3.83;;;12.70;99.90;;;;;;4986385;28;20062;-69
2022/10/31 07:32:40;;;;;;;;;;;12.60;99.90;;;;;;4976095;28;20436;-69
2022/10/31 07:35:10;;;;;;;12.90;4.50;;;12.60;99.90;;;;;;4975081;28;20363;-70
2022/10/31 07:37:36;;;;;;;9.98;4.20;;;12.50;99.90;;;;;;4991752;28;20057;-70
2022/10/31 07:40:04;;;;;;;11.48;4.60;;;12.70;99.90;;;;;;4993196;28;20069;-68
2022/10/31 07:42:34;;;;;;;10.90;5.53;;;12.70;99.90;;;;;;4995253;28;20077;-69
2022/10/31 07:44:59;;;;;;;6.93;4.40;;;12.70;99.90;;;;;;4994779;28;20080;-69
2022/10/31 07:47:25;;;;;;;13.80;4.73;;;12.70;99.90;;;;;;4990948;28;20399;-68
2022/10/31 07:49:50;;;;;;;8.00;4.07;;;12.70;99.90;;;;;;4993460;28;20026;-67
2022/10/31 07:52:16;;;;;;;11.73;4.70;;;12.70;99.90;;;;;;4990794;28;20026;-69
2022/10/31 07:54:41;;;;;;;11.57;4.73;;;12.70;99.90;;;;;;4996342;28;20042;-68
2022/10/31 07:57:07;;;;;;;11.67;4.93;;;12.80;99.90;;;;;;4989180;28;20035;-69
2022/10/31 07:59:32;;;;;;;9.63;4.70;;;12.80;99.90;;;;;;4978356;28;20019;-70
2022/10/31 08:01:58;;;;;;;12.40;4.70;;;12.80;99.90;;;;;;4974272;28;20533;-69
2022/10/31 08:04:23;;;;;;;11.93;4.77;;;12.80;99.90;;;;;;4993839;28;20030;-70
2022/10/31 08:06:49;;;;;;;12.07;5.50;;;12.90;99.90;;;;;;4992819;28;20030;-70
2022/10/31 08:09:14;;;;;;;9.30;4.77;;;12.90;99.90;;;;;;4972298;28;20437;-68
2022/10/31 08:11:40;;;;;;;10.10;4.27;;;13.10;99.90;;;;;;4988326;28;20163;-70
2022/10/31 08:14:05;;;;;;;10.47;4.73;;;13.20;99.90;;;;;;4993588;28;20062;-70
2022/10/31 08:16:32;;;;;;;8.73;4.00;;;13.30;99.90;;;;;;4993244;28;20053;-71
2022/10/31 08:18:57;;;;;;;10.60;4.57;;;13.40;99.90;;;;;;4992079;28;20027;-71
2022/10/31 08:21:23;;;;;;;8.95;4.28;;;13.50;99.90;;;;;;4993012;28;20392;-70
2022/10/31 08:23:48;;;;;;;9.50;3.90;;;13.60;99.90;;;;;;4993068;28;20041;-70
2022/10/31 08:26:14;;;;;;;11.53;4.10;;;13.70;99.90;;;;;;4993251;28;20031;-71
2022/10/31 08:28:39;;;;;;;9.97;5.27;;;13.80;99.90;;;;;;4993351;28;20108;-71
2022/10/31 08:31:05;;;;;;;8.80;4.20;;;14.00;99.90;;;;;;4995666;28;20027;-71
2022/10/31 08:33:31;;;;;;;8.30;3.53;;;14.10;99.90;;;;;;4994777;28;20033;-71
2022/10/31 08:36:00;;;;;;;9.35;4.03;;;14.20;99.90;;;;;;4991944;28;20030;-71
2022/10/31 08:38:25;;;;;;;9.73;3.72;;;14.40;99.90;;;;;;4993252;28;20031;-70
2022/10/31 08:40:51;;;;;;;12.37;5.00;;;14.50;99.90;;;;;;4993796;28;20072;-70
2022/10/31 08:43:18;;;;;;;8.27;3.63;;;14.70;99.90;;;;;;4993570;28;20108;-70
2022/10/31 08:45:47;;;;;;;11.43;4.20;;;14.80;99.90;;;;;;4993502;28;20070;-71
2022/10/31 08:48:14;;;;;;;11.07;3.60;;;14.90;99.90;;;;;;4993511;28;20030;-70
2022/10/31 08:50:41;;;;;;;8.77;4.40;;;14.90;99.90;;;;;;4992237;28;20049;-70
2022/10/31 08:53:07;;;;;;;;;;;15.00;99.90;;;;;;4993903;28;20130;-67
2022/10/31 08:55:37;;;;;;;8.93;4.07;;;15.10;99.90;;;;;;4992759;28;19905;-67
2022/10/31 08:58:05;;;;;;;8.23;3.28;;;15.30;99.90;;;;;;4993672;28;20025;-67
2022/10/31 09:00:31;;;;;;;7.72;3.72;;;15.40;99.90;;;;;;4993561;28;20080;-70
2022/10/31 09:02:57;;;;;;;7.72;3.80;;;15.60;99.90;;;;;;5008527;28;20034;-68
2022/10/31 09:05:23;;;;;;;8.23;3.80;;;15.90;99.90;;;;;;4993543;28;20538;-70
2022/10/31 09:07:49;;;;;;;7.50;3.55;;;15.70;99.90;;;;;;4995574;28;20125;-68
2022/10/31 09:10:14;;;;;;;8.90;3.80;;;15.80;99.90;;;;;;4997062;28;20143;-68
2022/10/31 09:12:41;;;;;;;9.90;4.30;;;16.10;99.90;;;;;;4997242;28;20328;-68
2022/10/31 09:15:06;;;;;;;;;;;16.20;99.90;;;;;;4997781;28;20023;-69
2022/10/31 09:17:32;;;;;;;8.15;3.35;;;16.60;99.90;;;;;;4997141;28;19917;-68
2022/10/31 09:19:57;;;;;;;9.13;3.40;;;16.90;99.90;;;;;;4997423;28;20042;-68
2022/10/31 09:22:23;;;;;;;8.40;3.90;;;17.30;99.90;;;;;;4996585;28;20407;-68
2022/10/31 09:24:48;;;;;;;6.50;3.47;;;17.30;99.90;;;;;;4996947;28;20029;-68
2022/10/31 09:27:14;;;;;;;10.73;4.00;;;17.60;99.90;;;;;;4996955;28;20440;-68
2022/10/31 09:29:40;;;;;;;8.13;3.17;;;17.70;99.90;;;;;;4996745;28;20022;-68
2022/10/31 09:32:05;;;;;;;8.10;3.72;;;18.00;99.90;;;;;;4996670;28;20109;-68
2022/10/31 09:34:31;;;;;;;12.20;4.20;;;18.00;99.90;;;;;;4999032;28;20026;-69
2022/10/31 09:36:56;;;;;;;8.35;3.67;;;18.20;99.90;;;;;;4999619;28;20030;-71
2022/10/31 09:39:22;;;;;;;13.17;4.17;;;17.60;99.90;;;;;;5000084;28;20034;-70
2022/10/31 09:42:37;;;;;;;7.53;3.87;;;17.00;99.90;;;;;;4997981;28;20300;-71
2022/10/31 09:45:03;;;;;;;11.30;3.75;;;16.50;99.90;;;;;;4988735;28;20273;-70
2022/10/31 09:48:07;;;;;;;11.50;4.10;;;16.30;99.90;;;;;;4991887;28;20065;-67
2022/10/31 09:50:56;;;;;;;10.38;4.13;;;16.10;99.90;;;;;;4991119;28;20023;-68
2022/10/31 09:53:39;;;;;;;9.57;3.67;;;16.20;99.90;;;;;;4998291;28;20019;-67
2022/10/31 09:56:09;;;;;;;7.15;3.78;;;16.80;99.90;;;;;;4996238;28;20503;-68
2022/10/31 09:58:45;;;;;;;8.88;3.78;;;17.10;99.90;;;;;;4993961;28;20424;-70
2022/10/31 10:01:22;;;;;;;11.07;4.65;;;17.10;99.90;;;;;;4977464;28;20022;-68
2022/10/31 10:03:52;;;;;;;10.55;3.78;;;17.20;99.90;;;;;;4992243;28;20031;-68
2022/10/31 10:06:22;;;;;;;8.80;4.25;;;17.50;99.90;;;;;;4977656;28;20388;-69
2022/10/31 10:08:48;;;;;;;8.02;3.97;;;18.10;99.90;;;;;;4993429;28;20033;-68
2022/10/31 10:11:32;;;;;;;11.85;4.53;;;18.20;99.90;;;;;;4996146;28;20030;-68
2022/10/31 10:14:04;;;;;;;9.80;4.15;;;18.30;99.90;;;;;;4994820;28;20046;-69
2022/10/31 10:16:53;;;;;;;9.63;4.05;;;18.40;99.90;;;;;;4994868;28;20038;-70
2022/10/31 10:19:23;;;;;;;9.05;4.90;;;18.50;99.90;;;;;;4978504;28;20027;-69
2022/10/31 10:21:58;;;;;;;10.75;4.00;;;18.80;99.90;;;;;;4975412;28;20129;-69
2022/10/31 10:24:26;;;;;;;10.63;4.03;;;19.00;99.90;;;;;;4973969;28;20027;-70
2022/10/31 10:27:30;;;;;;;14.02;5.00;;;18.80;99.90;;;;;;4975464;28;20062;-71
2022/10/31 10:30:13;;;;;;;9.05;4.20;;;18.60;99.90;;;;;;4965451;28;20104;-69
2022/10/31 10:33:02;;;;;;;8.43;4.25;;;18.50;99.90;;;;;;4974906;28;20030;-71
2022/10/31 10:35:33;;;;;;;13.98;4.35;;;18.70;99.90;;;;;;4974872;28;20027;-70
2022/10/31 10:38:21;;;;;;;9.40;3.95;;;18.80;99.90;;;;;;4984521;28;20034;-70
2022/10/31 10:40:47;;;;;;;11.30;4.53;;;19.10;99.90;;;;;;5011570;28;20014;-70
2022/10/31 10:43:22;;;;;;;10.95;5.07;;;19.10;99.90;;;;;;4992134;28;20034;-70
2022/10/31 10:49:49;;;;;;;9.18;3.67;;;19.30;99.90;;;;;;4991931;28;20573;-71
2022/10/31 10:52:27;;;;;;;10.05;4.15;;;18.90;99.90;;;;;;4975812;28;20472;-71
2022/10/31 10:55:15;;;;;;;9.80;4.45;;;18.80;99.90;;;;;;4976449;28;20399;-72
2022/10/31 10:57:55;;;;;;;11.15;4.20;;;18.70;99.90;;;;;;4976063;28;20117;-72
2022/10/31 11:00:30;;;;;;;8.77;4.18;;;18.40;99.90;;;;;;4975584;28;20088;-70
2022/10/31 11:02:56;;;;;;;19.20;9.05;;;18.40;99.90;;;;;;4990689;28;20038;-71
2022/10/31 11:05:50;;;;;;;9.45;3.72;;;18.40;99.90;;;;;;4992665;28;20042;-70
2022/10/31 11:08:34;;;;;;;13.43;4.78;;;18.20;99.90;;;;;;4996545;28;20026;-71
2022/10/31 11:11:19;;;;;;;8.65;5.35;;;18.10;99.90;;;;;;4995229;28;20093;-70
2022/10/31 11:13:47;;;;;;;11.55;5.63;;;17.90;99.90;;;;;;4995250;28;20392;-70
2022/10/31 11:16:27;;;;;;;9.00;4.43;;;17.60;99.90;;;;;;4995545;28;20034;-69
2022/10/31 11:18:53;;;;;;;10.27;4.10;;;17.70;99.90;;;;;;5015334;22;20057;-71
2022/10/31 11:21:20;;;;;;;;;;;17.60;99.90;;;;;;4990920;28;20432;-71
2022/10/31 11:23:46;;;;;;;9.90;4.18;;;17.70;99.90;;;;;;4973333;28;19917;-72
2022/10/31 11:26:20;;;;;;;8.97;4.00;;;18.00;99.90;;;;;;4989841;28;20038;-71
2022/10/31 11:28:59;;;;;;;10.05;3.75;;;18.10;99.90;;;;;;4994965;28;20253;-71
2022/10/31 11:31:26;;;;;;;10.23;3.75;;;18.10;99.90;;;;;;4994030;28;20070;-70
2022/10/31 11:34:00;;;;;;;7.72;3.95;;;18.10;99.90;;;;;;4995342;28;20527;-69
2022/10/31 11:36:29;;;;;;;12.73;4.38;;;18.20;99.90;;;;;;4994061;28;20034;-72
2022/10/31 11:38:55;;;;;;;9.43;5.28;;;18.10;99.90;;;;;;4994627;28;20022;-71
2022/10/31 11:41:38;;;;;;;8.43;4.38;;;18.30;99.90;;;;;;4995217;28;20036;-72
2022/10/31 11:44:14;;;;;;;11.88;4.28;;;18.40;99.90;;;;;;4995419;28;20038;-73
2022/10/31 11:46:49;;;;;;;10.65;4.05;;;18.40;99.90;;;;;;4994335;28;20033;-72
2022/10/31 11:49:49;;;;;;;9.60;3.83;;;18.30;99.90;;;;;;4993867;28;20062;-72
2022/10/31 11:52:31;;;;;;;12.77;4.95;;;18.30;99.90;;;;;;4993340;28;20030;-71
2022/10/31 11:55:13;;;;;;;11.95;4.78;;;18.20;99.90;;;;;;4995259;28;20066;-71
2022/10/31 11:57:47;;;;;;;9.32;4.95;;;18.30;99.90;;;;;;4997739;28;20038;-72
2022/10/31 12:00:29;;;;;;;9.70;4.45;;;18.50;99.90;;;;;;4994607;28;20026;-69
2022/10/31 12:03:26;;;;;;;12.80;4.50;;;18.60;99.90;;;;;;4993678;28;20027;-69
2022/10/31 12:06:03;;;;;;;9.32;5.20;;;18.40;99.90;;;;;;4994550;28;20506;-77
2022/10/31 12:08:30;;;;;;;;;;;18.40;99.90;;;;;;4994083;28;20022;-72
2022/10/31 12:11:13;;;;;;;10.95;5.88;;;18.30;99.90;;;;;;4994822;28;20000;-74
2022/10/31 12:13:58;;;;;;;10.43;5.13;;;18.10;99.90;;;;;;4994764;28;20112;-74
2022/10/31 12:16:46;;;;;;;15.23;4.82;;;17.90;99.90;;;;;;4994486;28;20434;-69
2022/10/31 12:19:19;;;;;;;12.73;5.18;;;17.80;99.90;;;;;;4985468;28;20034;-71
2022/10/31 12:21:58;;;;;;;10.57;5.05;;;17.50;99.90;;;;;;4975204;28;20467;-69
2022/10/31 12:24:48;;;;;;;9.30;4.68;;;17.50;99.90;;;;;;4974908;28;20039;-69
2022/10/31 12:27:22;;;;;;;10.35;5.57;;;17.50;99.90;;;;;;4974808;28;20067;-69
2022/10/31 12:30:06;;;;;;;11.68;5.20;;;17.80;99.90;;;;;;4973365;28;20030;-69
2022/10/31 12:32:50;;;;;;;17.38;5.93;;;18.00;99.90;;;;;;4974520;28;20367;-68
2022/10/31 12:35:32;;;;;;;10.15;4.63;;;18.20;99.90;;;;;;4972957;28;20472;-69
2022/10/31 12:38:03;;;;;;;13.07;4.65;;;18.40;99.90;;;;;;4973320;28;20053;-69
2022/10/31 12:40:55;;;;;;;14.05;4.82;;;18.50;99.90;;;;;;4973313;28;20444;-69
2022/10/31 12:43:36;;;;;;;12.02;4.53;;;18.50;99.90;;;;;;4978664;28;20027;-67
2022/10/31 12:46:04;;;;;;;9.88;5.32;;;18.50;99.90;;;;;;4979960;28;20106;-68
2022/10/31 12:48:48;;;;;;;12.68;5.05;;;18.50;99.90;;;;;;5017410;28;20143;-68
2022/10/31 12:51:28;;;;;;;9.45;4.13;;;18.30;99.90;;;;;;5016403;28;20033;-68
2022/10/31 12:54:26;;;;;;;8.43;4.15;;;18.20;99.90;;;;;;5016200;28;20030;-68
2022/10/31 12:57:11;;;;;;;12.45;4.88;;;18.30;99.90;;;;;;5012317;28;20025;-67
2022/10/31 12:59:40;;;;;;;9.65;4.60;;;18.40;99.90;;;;;;5017593;28;20025;-68
2022/10/31 13:02:41;;;;;;;14.07;5.10;;;18.40;99.90;;;;;;5017809;28;20022;-69
2022/10/31 13:05:20;;;;;;;19.27;5.97;;;18.60;99.90;;;;;;5017401;28;20049;-70
2022/10/31 13:07:55;;;;;;;13.00;4.60;;;18.80;99.90;;;;;;5016777;28;20030;-68
2022/10/31 13:11:00;;;;;;;10.02;5.07;;;19.20;99.90;;;;;;5017413;28;20021;-69
2022/10/31 13:13:45;;;;;;;9.70;4.57;;;19.20;99.90;;;;;;5017198;28;20048;-68
2022/10/31 13:16:21;;;;;;;9.25;4.57;;;19.40;99.90;;;;;;5017192;28;20024;-68
2022/10/31 13:19:00;;;;;;;8.93;5.40;;;19.50;99.90;;;;;;5015356;28;20030;-69
2022/10/31 13:21:36;;;;;;;14.23;6.25;;;19.10;99.90;;;;;;4977786;28;20336;-69
2022/10/31 13:24:09;;;;;;;10.75;5.32;;;18.90;99.90;;;;;;4976684;28;20034;-69
2022/10/31 13:26:43;;;;;;;13.85;5.70;;;18.70;99.90;;;;;;4978178;28;20030;-69
2022/10/31 13:29:29;;;;;;;11.70;4.90;;;18.70;99.90;;;;;;4976455;28;20027;-70
2022/10/31 13:31:54;;;;;;;11.13;4.90;;;18.80;99.90;;;;;;4976619;28;20034;-69
2022/10/31 13:34:31;;;;;;;13.18;5.32;;;18.70;99.90;;;;;;4977311;28;20369;-69
2022/10/31 13:37:09;;;;;;;13.93;5.72;;;18.70;99.90;;;;;;4976566;28;20129;-70
2022/10/31 13:40:05;;;;;;;10.77;5.47;;;18.60;99.90;;;;;;4977594;28;20027;-69
2022/10/31 13:42:52;;;;;;;12.73;5.38;;;18.50;99.90;;;;;;4977697;28;20015;-68
2022/10/31 13:45:21;;;;;;;18.58;4.90;;;18.40;99.90;;;;;;4978351;28;20372;-68
2022/10/31 13:47:58;;;;;;;7.60;4.88;;;18.30;99.90;;;;;;4976138;28;20038;-69
2022/10/31 13:50:25;;;;;;;16.38;5.72;;;18.00;99.90;;;;;;4976982;28;20495;-72
2022/10/31 13:52:51;;;;;;;8.38;4.80;;;18.00;99.90;;;;;;4974855;28;20031;-68
2022/10/31 13:55:42;;;;;;;11.55;5.30;;;18.00;99.90;;;;;;4976762;28;20529;-68
2022/10/31 13:58:24;;;;;;;10.68;5.47;;;17.90;99.90;;;;;;4977714;28;20038;-68
2022/10/31 14:01:16;;;;;;;13.50;5.90;;;17.70;99.90;;;;;;4977436;28;20034;-69
2022/10/31 14:03:45;;;;;;;9.80;4.65;;;17.70;99.90;;;;;;4987029;28;20041;-67
2022/10/31 14:06:11;;;;;;;13.23;5.82;;;17.90;99.90;;;;;;4996987;28;20502;-69
2022/10/31 14:08:43;;;;;;;19.25;5.65;;;18.00;99.90;;;;;;4996720;28;20031;-69
2022/10/31 14:11:24;;;;;;;8.70;4.53;;;18.00;99.90;;;;;;4997396;28;20034;-67
2022/10/31 14:13:50;;;;;;;11.25;5.07;;;17.80;99.90;;;;;;4997188;28;20022;-70
2022/10/31 14:16:26;;;;;;;14.13;5.47;;;17.70;99.90;;;;;;4997273;28;20033;-71
2022/10/31 14:19:07;;;;;;;19.50;5.35;;;17.70;99.90;;;;;;4989849;28;20129;-70
2022/10/31 14:21:44;;;;;;;12.65;5.40;;;17.70;99.90;;;;;;4977199;28;20019;-71
2022/10/31 14:24:25;;;;;;;11.85;5.38;;;17.60;99.90;;;;;;4975608;28;20034;-69
2022/10/31 14:26:56;;;;;;;11.77;5.15;;;17.70;99.90;;;;;;4976044;28;20507;-69
2022/10/31 14:29:24;;;;;;;12.05;5.47;;;17.90;99.90;;;;;;4977098;28;20081;-69
2022/10/31 14:32:14;;;;;;;14.00;5.38;;;18.00;99.90;;;;;;4976826;28;20075;-69
2022/10/31 14:34:42;;;;;;;23.67;11.80;;;18.00;99.90;;;;;;4975367;28;20042;-70
2022/10/31 14:37:43;;;;;;;12.23;6.10;;;18.00;99.90;;;;;;4977083;28;20041;-70
2022/10/31 14:40:31;;;;;;;13.57;5.20;;;17.90;99.90;;;;;;4975371;28;20027;-70
2022/10/31 14:43:15;;;;;;;12.32;5.30;;;18.00;99.90;;;;;;4975337;28;20054;-68
2022/10/31 14:46:00;;;;;;;8.30;4.63;;;18.00;99.90;;;;;;4976353;28;20104;-68
2022/10/31 14:48:28;;;;;;;11.50;5.05;;;18.00;99.90;;;;;;4976312;28;20037;-67
2022/10/31 14:50:58;;;;;;;7.80;4.63;;;17.90;99.90;;;;;;4975947;28;20069;-68
2022/10/31 14:53:47;;;;;;;10.23;4.80;;;17.90;99.90;;;;;;4976523;28;20027;-67
2022/10/31 14:56:28;;;;;;;13.63;5.00;;;17.80;99.90;;;;;;4975095;28;20212;-68
2022/10/31 14:58:57;;;;;;;9.02;4.55;;;17.80;99.90;;;;;;4976389;28;20031;-69
2022/10/31 15:01:28;;;;;;;11.52;4.53;;;17.80;99.90;;;;;;4976373;28;20022;-69
2022/10/31 15:04:00;;;;;;;11.00;5.00;;;17.90;99.90;;;;;;4975716;28;20026;-68
2022/10/31 15:06:27;;;;;;;11.43;5.50;;;17.80;99.90;;;;;;4974798;28;20023;-68
2022/10/31 15:08:57;;;;;;;12.02;5.25;;;17.60;99.90;;;;;;4976566;28;20448;-69
2022/10/31 15:11:26;;;;;;;9.32;5.15;;;17.50;99.90;;;;;;4977207;28;20522;-68
2022/10/31 15:13:52;;;;;;;11.32;4.60;;;17.50;99.90;;;;;;4976287;28;20023;-68
2022/10/31 15:16:22;;;;;;;12.57;4.85;;;17.50;99.90;;;;;;4976094;28;20023;-68
2022/10/31 15:19:06;;;;;;;9.10;4.70;;;17.60;99.90;;;;;;4975540;28;20030;-69
2022/10/31 15:21:33;;;;;;;11.93;5.20;;;17.60;99.90;;;;;;4990669;28;20027;-71
2022/10/31 15:24:01;;;;;;;15.80;5.03;;;17.50;99.90;;;;;;4978335;28;20030;-70
2022/10/31 15:26:37;;;;;;;10.50;5.10;;;17.40;99.90;;;;;;4994078;28;20376;-71
2022/10/31 15:29:05;;;;;;;13.57;5.38;;;17.40;99.90;;;;;;4995133;28;20042;-70
2022/10/31 15:31:31;;;;;;;13.95;5.55;;;17.30;99.90;;;;;;4995307;28;20109;-69
2022/10/31 15:34:02;;;;;;;12.95;5.60;;;17.30;99.90;;;;;;4993584;28;20463;-70
2022/10/31 15:36:28;;;;;;;12.23;6.10;;;17.30;99.90;;;;;;4995022;28;20037;-70
2022/10/31 15:38:56;;;;;;;18.37;7.73;;;17.30;99.90;;;;;;4993832;28;20022;-71
2022/10/31 15:41:36;;;;;;;10.32;5.38;;;17.30;99.90;;;;;;4999672;28;20430;-71
2022/10/31 15:44:11;;;;;;;9.98;5.25;;;17.20;99.90;;;;;;4994193;28;20022;-69
2022/10/31 15:46:37;;;;;;;11.02;6.30;;;17.10;99.90;;;;;;4995919;28;20033;-70
2022/10/31 15:49:03;;;;;;;17.33;6.87;;;17.00;99.90;;;;;;4995083;28;20034;-71
2022/10/31 15:51:32;;;;;;;9.95;5.82;;;17.00;99.90;;;;;;4993542;28;20080;-71
2022/10/31 15:54:00;;;;;;;16.15;6.05;;;17.00;99.90;;;;;;4994946;28;20026;-69
2022/10/31 15:56:29;;;;;;;13.88;4.88;;;16.90;99.90;;;;;;4995072;28;20033;-68
2022/10/31 15:58:56;;;;;;;11.13;5.95;;;16.90;99.90;;;;;;4993543;28;20022;-69
2022/10/31 16:01:23;;;;;;;11.50;5.50;;;16.90;99.90;;;;;;4994480;28;20033;-69
2022/10/31 16:04:24;;;;;;;16.23;6.55;;;16.90;99.90;;;;;;4994552;28;20102;-70
2022/10/31 16:07:00;;;;;;;12.98;5.15;;;16.80;99.90;;;;;;4986446;28;20049;-67
2022/10/31 16:09:26;;;;;;;15.18;5.90;;;16.90;99.90;;;;;;4994467;28;20037;-68
2022/10/31 16:11:51;;;;;;;16.30;5.70;;;16.80;99.90;;;;;;4992809;28;20030;-68
2022/10/31 16:14:22;;;;;;;16.20;6.05;;;16.80;99.90;;;;;;4993588;28;20054;-68
2022/10/31 16:16:54;;;;;;;12.45;6.20;;;16.80;99.90;;;;;;4992707;28;20073;-69
2022/10/31 16:19:27;;;;;;;14.20;6.68;;;16.90;99.90;;;;;;4994103;28;20036;-68
2022/10/31 16:22:06;;;;;;;14.77;6.25;;;16.90;99.90;;;;;;4994519;28;20106;-68
2022/10/31 16:24:37;;;;;;;12.23;5.43;;;16.80;99.90;;;;;;4994922;28;20487;-68
2022/10/31 16:27:05;;;;;;;12.52;6.60;;;16.90;99.90;;;;;;4994763;28;20061;-69
2022/10/31 16:29:41;;;;;;;15.23;7.32;;;17.00;99.90;;;;;;4978309;28;20373;-69
2022/10/31 16:32:37;;;;;;;10.18;5.20;;;16.90;99.90;;;;;;4987718;28;20495;-68
2022/10/31 16:35:11;;;;;;;9.75;6.25;;;16.70;99.90;;;;;;4973814;28;20125;-70
2022/10/31 16:37:38;;;;;;;12.52;6.15;;;16.60;99.90;;;;;;4974893;28;20098;-70
2022/10/31 16:40:04;;;;;;;9.70;6.22;;;16.50;99.90;;;;;;4989706;28;20026;-69
2022/10/31 16:42:30;;;;;;;10.90;5.68;;;16.50;99.90;;;;;;4974846;28;20023;-69
2022/10/31 16:44:55;;;;;;;16.23;10.50;;;16.40;99.90;;;;;;4974700;28;20118;-69
2022/10/31 16:47:21;;;;;;;22.50;11.75;;;16.50;99.90;;;;;;4973362;28;20031;-70
2022/10/31 16:49:49;;;;;;;24.85;12.48;;;16.70;99.90;;;;;;4974240;28;20070;-69
2022/10/31 16:52:15;;;;;;;17.27;9.05;;;16.60;99.90;;;;;;4973076;28;20046;-70
2022/10/31 16:54:41;;;;;;;22.30;9.68;;;16.50;99.90;;;;;;4974526;28;20022;-69
2022/10/31 16:57:10;;;;;;;27.07;13.53;;;16.50;99.90;;;;;;4973154;28;20046;-69
2022/10/31 16:59:36;;;;;;;26.92;14.68;;;16.50;99.90;;;;;;4974159;28;20023;-70
2022/10/31 17:02:03;;;;;;;25.20;12.05;;;16.40;99.90;;;;;;4973905;28;20396;-69
2022/10/31 17:04:28;;;;;;;21.70;11.27;;;16.30;99.90;;;;;;4972679;28;20027;-70
2022/10/31 17:06:54;;;;;;;18.33;9.27;;;16.40;99.90;;;;;;4974361;28;20042;-69
2022/10/31 17:09:19;;;;;;;25.23;12.17;;;16.30;99.90;;;;;;4990648;28;20117;-69
2022/10/31 17:11:48;;;;;;;20.90;8.80;;;16.30;99.90;;;;;;4993347;28;20276;-69
2022/10/31 17:14:14;;;;;;;20.63;10.60;;;16.30;99.90;;;;;;4992170;28;20057;-70
2022/10/31 17:16:40;;;;;;;16.55;8.35;;;16.30;99.90;;;;;;4994081;28;20452;-71
2022/10/31 17:19:07;;;;;;;13.82;7.22;;;16.10;99.90;;;;;;4992333;28;20136;-70
2022/10/31 17:21:33;;;;;;;26.40;9.73;;;16.20;99.90;;;;;;5019911;23;20046;-68
2022/10/31 17:23:58;;;;;;;21.67;8.73;;;16.20;99.90;;;;;;4993575;28;20022;-67
2022/10/31 17:26:24;;;;;;;16.33;8.20;;;16.20;99.90;;;;;;4993741;28;20034;-67
2022/10/31 17:28:49;;;;;;;16.27;7.68;;;16.30;99.90;;;;;;5012269;28;20029;-67
2022/10/31 17:31:22;;;;;;;16.63;8.47;;;16.30;99.90;;;;;;5001589;28;20340;-68
2022/10/31 17:33:48;;;;;;;19.33;8.63;;;16.30;99.90;;;;;;4996141;28;20042;-67
2022/10/31 17:36:13;;;;;;;13.80;9.07;;;16.20;99.90;;;;;;4993593;28;20395;-69
2022/10/31 17:38:39;;;;;;;20.27;8.67;;;16.10;99.90;;;;;;4993984;28;20031;-68
2022/10/31 17:41:05;;;;;;;16.00;8.60;;;16.20;99.90;;;;;;4994814;28;20042;-68
2022/10/31 17:43:31;;;;;;;18.50;8.80;;;16.20;99.90;;;;;;4992580;28;20027;-69
2022/10/31 17:45:59;;;;;;;20.37;8.97;;;16.30;99.90;;;;;;4993603;28;20037;-67
2022/10/31 17:48:25;;;;;;;14.55;7.40;;;16.30;99.90;;;;;;4994772;28;20030;-69
2022/10/31 17:50:50;;;;;;;17.38;9.68;;;16.20;99.90;;;;;;4996913;28;20105;-69
2022/10/31 17:53:16;;;;;;;13.07;7.55;;;16.10;99.90;;;;;;4993934;28;20031;-68
2022/10/31 17:55:42;;;;;;;21.52;7.70;;;16.20;99.90;;;;;;4990750;28;20382;-67
2022/10/31 17:58:11;;;;;;;12.37;7.37;;;16.20;99.90;;;;;;4990452;28;20030;-67
2022/10/31 18:00:37;;;;;;;12.30;6.60;;;16.20;99.90;;;;;;4992498;28;20019;-68
2022/10/31 18:03:03;;;;;;;15.27;7.53;;;16.20;99.90;;;;;;4992149;28;20030;-68
2022/10/31 18:05:29;;;;;;;16.02;7.43;;;16.20;99.90;;;;;;4992948;28;20417;-69
2022/10/31 18:07:55;;;;;;;11.82;7.38;;;16.20;99.90;;;;;;4993286;28;20030;-68